Time;durP1;ratioP1;P1;durP2;ratioP2;P2;SDS_P1;SDS_P2;PMS_P1;PMS_P2;Temp;Humidity;BMP_temperature;BMP_pressure;BME280_temperature;BME280_humidity;BME280_pressure;Samples;Min_cycle;Max_cycle;Signal;HPM_P1;HPM_P2
2023/04/26 00:01:34;;;;;;;0.50;0.25;;;;;;;;;;5046710;28;20044;-66
2023/04/26 00:04:01;;;;;;;0.47;0.30;;;;;;;;;;5021492;28;20132;-66
2023/04/26 00:06:27;;;;;;;0.73;0.40;;;;;;;;;;5029166;28;20064;-66
2023/04/26 00:08:54;;;;;;;0.40;0.40;;;;;;;;;;5046656;28;20507;-65
2023/04/26 00:11:20;;;;;;;0.20;0.20;;;;;;;;;;5047060;28;20578;-66
2023/04/26 00:13:46;;;;;;;0.35;0.25;;;;;;;;;;5027985;28;20036;-66
2023/04/26 00:16:13;;;;;;;0.10;0.10;;;;;;;;;;5029064;28;20055;-66
2023/04/26 00:18:40;;;;;;;0.45;0.20;;;;;;;;;;5046508;28;20060;-66
2023/04/26 00:21:06;;;;;;;0.15;0.15;;;;;;;;;;5047578;28;20060;-66
2023/04/26 00:23:32;;;;;;;0.28;0.20;;;;;;;;;;5028191;28;20041;-65
2023/04/26 00:25:58;;;;;;;0.10;0.10;;;;;;;;;;5047254;28;20127;-65
2023/04/26 00:28:24;;;;;;;0.75;0.28;;;;;;;;;;5046755;28;20153;-66
2023/04/26 00:30:50;;;;;;;0.20;0.20;;;;;;;;;;5028138;28;20071;-66
2023/04/26 00:33:16;;;;;;;0.10;0.10;;;;;;;;;;5029349;28;20470;-66
2023/04/26 00:35:42;;;;;;;0.20;0.20;;;;;;;;;;5046729;28;20077;-65
2023/04/26 00:38:08;;;;;;;0.20;0.20;;;;;;;;;;5046409;28;20051;-66
2023/04/26 00:40:34;;;;;;;0.45;0.45;;;;;;;;;;5028867;28;20398;-66
2023/04/26 00:43:00;;;;;;;0.85;0.30;;;;;;;;;;5046905;28;20072;-65
2023/04/26 00:45:26;;;;;;;0.30;0.30;;;;;;;;;;5043327;28;20064;-66
2023/04/26 00:47:53;;;;;;;0.40;0.40;;;;;;;;;;5046587;28;20139;-66
2023/04/26 00:50:19;;;;;;;0.57;0.40;;;;;;;;;;5028638;28;20041;-65
2023/04/26 00:52:46;;;;;;;1.42;0.93;;;;;;;;;;5045779;28;20135;-65
2023/04/26 00:55:13;;;;;;;2.97;0.60;;;;;;;;;;5046879;28;20047;-65
2023/04/26 00:57:39;;;;;;;0.47;0.28;;;;;;;;;;5028001;28;20225;-66
2023/04/26 01:00:06;;;;;;;0.77;0.28;;;;;;;;;;5028733;28;20045;-66
2023/04/26 01:02:32;;;;;;;0.57;0.57;;;;;;;;;;5046322;28;20088;-66
2023/04/26 01:04:58;;;;;;;1.00;0.60;;;;;;;;;;5043147;28;20080;-65
2023/04/26 01:07:24;;;;;;;0.70;0.68;;;;;;;;;;5045947;28;20044;-66
2023/04/26 01:09:51;;;;;;;2.45;0.75;;;;;;;;;;5027973;28;20152;-65
2023/04/26 01:12:17;;;;;;;0.65;0.50;;;;;;;;;;5043724;28;20068;-66
2023/04/26 01:14:43;;;;;;;0.70;0.35;;;;;;;;;;5028122;28;20079;-65
2023/04/26 01:17:09;;;;;;;0.47;0.40;;;;;;;;;;5043278;28;20045;-66
2023/04/26 01:19:39;;;;;;;1.92;0.55;;;;;;;;;;5045160;28;20049;-65
2023/04/26 01:22:05;;;;;;;1.10;0.50;;;;;;;;;;5043498;28;20049;-65
2023/04/26 01:24:31;;;;;;;2.55;1.23;;;;;;;;;;5045493;28;20051;-66
2023/04/26 01:26:57;;;;;;;1.38;0.60;;;;;;;;;;5026979;28;20048;-65
2023/04/26 01:29:23;;;;;;;0.80;0.43;;;;;;;;;;5045633;28;20395;-65
2023/04/26 01:31:49;;;;;;;1.58;0.40;;;;;;;;;;5045528;28;20041;-65
2023/04/26 01:34:16;;;;;;;0.55;0.50;;;;;;;;;;5045816;28;20049;-65
2023/04/26 01:36:42;;;;;;;0.50;0.50;;;;;;;;;;5045747;28;20052;-66
2023/04/26 01:39:08;;;;;;;1.35;0.35;;;;;;;;;;5028306;28;20052;-65
2023/04/26 01:41:34;;;;;;;0.65;0.30;;;;;;;;;;5044761;28;20041;-66
2023/04/26 01:44:00;;;;;;;1.10;0.50;;;;;;;;;;5045570;28;20057;-65
2023/04/26 01:46:26;;;;;;;0.43;0.20;;;;;;;;;;5045339;28;20056;-65
2023/04/26 01:48:52;;;;;;;0.60;0.32;;;;;;;;;;5044679;28;20144;-66
2023/04/26 01:51:18;;;;;;;0.77;0.30;;;;;;;;;;5045650;28;20194;-65
2023/04/26 01:53:44;;;;;;;1.38;0.63;;;;;;;;;;5044908;28;20043;-65
2023/04/26 01:56:10;;;;;;;0.43;0.40;;;;;;;;;;5028130;28;20061;-65
2023/04/26 01:58:36;;;;;;;1.27;0.50;;;;;;;;;;5045361;28;20048;-65
2023/04/26 02:01:07;;;;;;;0.68;0.38;;;;;;;;;;5026603;28;20048;-66
2023/04/26 02:03:33;;;;;;;0.50;0.50;;;;;;;;;;5045039;28;20051;-66
2023/04/26 02:05:59;;;;;;;0.50;0.30;;;;;;;;;;5027431;28;20401;-65
2023/04/26 02:08:25;;;;;;;1.15;0.38;;;;;;;;;;5044423;28;20060;-65
2023/04/26 02:10:51;;;;;;;0.85;0.40;;;;;;;;;;5027004;28;20037;-66
2023/04/26 02:13:18;;;;;;;0.77;0.60;;;;;;;;;;5027916;28;20055;-65
2023/04/26 02:15:48;;;;;;;0.68;0.40;;;;;;;;;;5025806;28;20049;-65
2023/04/26 02:18:14;;;;;;;1.13;0.70;;;;;;;;;;5045021;28;20520;-66
2023/04/26 02:20:44;;;;;;;0.80;0.38;;;;;;;;;;5026831;28;20135;-65
2023/04/26 02:23:11;;;;;;;0.80;0.60;;;;;;;;;;5045012;28;20052;-66
2023/04/26 02:25:37;;;;;;;0.63;0.50;;;;;;;;;;5026837;28;20442;-65
2023/04/26 02:28:03;;;;;;;0.40;0.28;;;;;;;;;;5044643;28;20084;-66
2023/04/26 02:30:30;;;;;;;3.00;0.45;;;;;;;;;;5025674;28;20049;-66
2023/04/26 02:32:56;;;;;;;0.85;0.25;;;;;;;;;;5026783;28;20041;-66
2023/04/26 02:35:22;;;;;;;0.30;0.30;;;;;;;;;;5044456;28;20051;-66
2023/04/26 02:37:51;;;;;;;0.30;0.30;;;;;;;;;;5042532;28;20060;-66
2023/04/26 02:40:17;;;;;;;0.55;0.50;;;;;;;;;;5045546;28;20052;-66
2023/04/26 02:42:43;;;;;;;0.52;0.32;;;;;;;;;;5026390;28;20045;-65
2023/04/26 02:45:09;;;;;;;1.45;0.30;;;;;;;;;;5025835;28;20063;-66
2023/04/26 02:47:37;;;;;;;0.52;0.20;;;;;;;;;;5026193;28;20052;-66
2023/04/26 02:50:03;;;;;;;0.63;0.40;;;;;;;;;;5039984;28;20262;-65
2023/04/26 02:52:29;;;;;;;0.35;0.35;;;;;;;;;;5042664;28;20087;-66
2023/04/26 02:54:55;;;;;;;0.80;0.55;;;;;;;;;;5025900;28;20052;-65
2023/04/26 02:57:21;;;;;;;0.35;0.35;;;;;;;;;;5026079;28;20048;-65
2023/04/26 02:59:47;;;;;;;0.60;0.40;;;;;;;;;;5025586;28;20147;-65
2023/04/26 03:02:13;;;;;;;0.50;0.40;;;;;;;;;;5044432;28;20043;-66
2023/04/26 03:04:40;;;;;;;1.42;0.60;;;;;;;;;;5043471;28;20525;-65
2023/04/26 03:07:06;;;;;;;3.95;0.50;;;;;;;;;;5026608;28;20048;-66
2023/04/26 03:09:33;;;;;;;0.98;0.40;;;;;;;;;;5043759;28;20683;-65
2023/04/26 03:11:59;;;;;;;0.35;0.32;;;;;;;;;;5025598;28;20066;-65
2023/04/26 03:14:26;;;;;;;0.30;0.30;;;;;;;;;;5043482;28;20049;-65
2023/04/26 03:16:52;;;;;;;0.57;0.40;;;;;;;;;;5025962;28;20064;-65
2023/04/26 03:19:18;;;;;;;1.35;0.30;;;;;;;;;;5025964;28;20053;-65
2023/04/26 03:21:44;;;;;;;0.38;0.20;;;;;;;;;;5026137;28;20083;-66
2023/04/26 03:24:10;;;;;;;0.55;0.47;;;;;;;;;;5026570;28;20062;-66
2023/04/26 03:26:36;;;;;;;0.40;0.40;;;;;;;;;;5042813;28;20052;-65
2023/04/26 03:29:03;;;;;;;1.88;0.63;;;;;;;;;;5042157;28;20482;-65
2023/04/26 03:31:29;;;;;;;1.10;0.88;;;;;;;;;;5025765;28;20061;-66
2023/04/26 03:33:55;;;;;;;0.98;0.55;;;;;;;;;;5024673;28;20052;-66
2023/04/26 03:36:21;;;;;;;3.10;0.40;;;;;;;;;;5043743;28;20071;-66
2023/04/26 03:38:47;;;;;;;1.05;0.45;;;;;;;;;;5043327;28;20530;-66
2023/04/26 03:41:13;;;;;;;0.85;0.40;;;;;;;;;;5043814;28;20065;-66
2023/04/26 03:43:39;;;;;;;0.30;0.30;;;;;;;;;;5025362;28;20804;-65
2023/04/26 03:46:05;;;;;;;0.38;0.38;;;;;;;;;;5043611;28;20665;-65
2023/04/26 03:48:31;;;;;;;0.73;0.47;;;;;;;;;;5024533;28;20051;-66
2023/04/26 03:50:57;;;;;;;0.40;0.40;;;;;;;;;;5024529;28;20086;-66
2023/04/26 03:53:23;;;;;;;2.28;0.50;;;;;;;;;;5024537;28;20049;-65
2023/04/26 03:55:49;;;;;;;1.05;0.40;;;;;;;;;;5043369;28;20106;-66
2023/04/26 03:58:15;;;;;;;0.30;0.30;;;;;;;;;;5026170;28;20063;-65
2023/04/26 04:00:42;;;;;;;0.57;0.57;;;;;;;;;;5024754;28;20103;-66
2023/04/26 04:03:08;;;;;;;0.40;0.30;;;;;;;;;;5043569;28;20049;-65
2023/04/26 04:05:34;;;;;;;0.32;0.32;;;;;;;;;;5043374;28;20184;-65
2023/04/26 04:08:01;;;;;;;1.08;0.30;;;;;;;;;;5024647;28;20102;-65
2023/04/26 04:10:27;;;;;;;0.35;0.28;;;;;;;;;;5041874;28;20125;-65
2023/04/26 04:12:53;;;;;;;0.60;0.40;;;;;;;;;;5025116;28;20045;-65
2023/04/26 04:15:19;;;;;;;0.40;0.30;;;;;;;;;;5039281;28;20045;-65
2023/04/26 04:17:46;;;;;;;0.40;0.40;;;;;;;;;;5042846;28;20041;-65
2023/04/26 04:20:12;;;;;;;0.50;0.40;;;;;;;;;;5043826;28;20041;-65
2023/04/26 04:22:39;;;;;;;0.20;0.20;;;;;;;;;;5042186;28;20446;-65
2023/04/26 04:25:06;;;;;;;0.45;0.43;;;;;;;;;;5043453;28;20040;-65
2023/04/26 04:27:32;;;;;;;1.48;0.90;;;;;;;;;;5043152;28;20132;-65
2023/04/26 04:29:58;;;;;;;0.95;0.70;;;;;;;;;;5042187;28;20083;-65
2023/04/26 04:32:24;;;;;;;0.80;0.68;;;;;;;;;;5039778;28;20048;-65
2023/04/26 04:34:52;;;;;;;0.50;0.50;;;;;;;;;;5043111;28;20399;-65
2023/04/26 04:37:18;;;;;;;1.00;0.47;;;;;;;;;;5043035;28;20098;-65
2023/04/26 04:39:45;;;;;;;0.68;0.60;;;;;;;;;;5026412;28;20057;-65
2023/04/26 04:42:11;;;;;;;1.02;0.40;;;;;;;;;;5047065;28;20055;-65
2023/04/26 04:44:37;;;;;;;0.55;0.32;;;;;;;;;;5045218;28;20049;-65
2023/04/26 04:47:03;;;;;;;0.30;0.30;;;;;;;;;;5044820;28;20068;-65
2023/04/26 04:49:30;;;;;;;0.85;0.47;;;;;;;;;;5046559;28;20399;-65
2023/04/26 04:51:57;;;;;;;0.73;0.52;;;;;;;;;;5027547;28;20052;-65
2023/04/26 04:54:23;;;;;;;1.08;0.40;;;;;;;;;;5029193;28;20049;-65
2023/04/26 04:56:50;;;;;;;0.30;0.30;;;;;;;;;;5027342;28;20084;-65
2023/04/26 04:59:16;;;;;;;0.95;0.63;;;;;;;;;;5046640;28;20041;-65
2023/04/26 05:01:42;;;;;;;1.05;0.40;;;;;;;;;;5028638;28;20072;-65
2023/04/26 05:04:08;;;;;;;0.43;0.38;;;;;;;;;;5027515;28;20479;-65
2023/04/26 05:06:34;;;;;;;0.25;0.25;;;;;;;;;;5046373;28;20072;-65
2023/04/26 05:09:00;;;;;;;1.83;0.38;;;;;;;;;;5028093;28;20393;-66
2023/04/26 05:11:26;;;;;;;1.52;0.35;;;;;;;;;;5045359;28;20580;-65
2023/04/26 05:13:52;;;;;;;0.90;0.43;;;;;;;;;;5046231;28;20052;-65
2023/04/26 05:16:18;;;;;;;0.45;0.30;;;;;;;;;;5029163;28;20638;-65
2023/04/26 05:18:44;;;;;;;0.82;0.40;;;;;;;;;;5028050;28;20044;-65
2023/04/26 05:21:10;;;;;;;0.38;0.38;;;;;;;;;;5028679;28;20136;-65
2023/04/26 05:23:36;;;;;;;0.40;0.40;;;;;;;;;;5044927;28;20168;-65
2023/04/26 05:26:06;;;;;;;2.55;1.10;;;;;;;;;;5027004;28;20471;-65
2023/04/26 05:28:35;;;;;;;1.00;0.90;;;;;;;;;;5045654;28;20049;-65
2023/04/26 05:31:02;;;;;;;0.40;0.40;;;;;;;;;;5027416;28;20045;-65
2023/04/26 05:33:29;;;;;;;0.55;0.38;;;;;;;;;;5027223;28;20048;-65
2023/04/26 05:35:56;;;;;;;0.95;0.50;;;;;;;;;;5027282;28;20060;-65
2023/04/26 05:38:23;;;;;;;0.95;0.75;;;;;;;;;;5023949;28;20060;-65
2023/04/26 05:40:49;;;;;;;0.52;0.40;;;;;;;;;;5044784;28;20040;-65
2023/04/26 05:43:15;;;;;;;1.25;0.65;;;;;;;;;;5045881;28;20063;-65
2023/04/26 05:45:50;;;;;;;0.80;0.68;;;;;;;;;;5045813;28;20049;-65
2023/04/26 05:48:16;;;;;;;0.30;0.20;;;;;;;;;;5044120;28;20119;-65
2023/04/26 05:50:42;;;;;;;0.50;0.20;;;;;;;;;;5026426;28;20179;-65
2023/04/26 05:53:08;;;;;;;1.20;0.60;;;;;;;;;;5044100;28;20045;-65
2023/04/26 05:55:34;;;;;;;0.50;0.30;;;;;;;;;;5045135;28;20064;-65
2023/04/26 05:58:00;;;;;;;0.30;0.10;;;;;;;;;;5026751;28;20052;-65
2023/04/26 06:00:26;;;;;;;0.10;0.10;;;;;;;;;;5026548;28;20064;-65
2023/04/26 06:02:52;;;;;;;0.30;0.30;;;;;;;;;;5026268;28;20044;-66
2023/04/26 06:05:19;;;;;;;0.32;0.32;;;;;;;;;;5027669;28;20488;-66
2023/04/26 06:07:45;;;;;;;2.78;0.40;;;;;;;;;;5044805;28;20041;-66
2023/04/26 06:10:12;;;;;;;0.32;0.30;;;;;;;;;;5045980;28;20060;-65
2023/04/26 06:12:38;;;;;;;0.32;0.30;;;;;;;;;;5026808;28;20060;-65
2023/04/26 06:15:04;;;;;;;0.43;0.43;;;;;;;;;;5026632;28;20511;-65
2023/04/26 06:17:30;;;;;;;0.40;0.32;;;;;;;;;;5026844;28;20053;-65
2023/04/26 06:19:56;;;;;;;0.30;0.30;;;;;;;;;;5044599;28;20155;-65
2023/04/26 06:22:22;;;;;;;0.40;0.30;;;;;;;;;;5040513;28;20049;-65
2023/04/26 06:24:48;;;;;;;0.68;0.43;;;;;;;;;;5026492;28;20044;-65
2023/04/26 06:27:14;;;;;;;0.57;0.52;;;;;;;;;;5045381;28;20052;-65
2023/04/26 06:29:42;;;;;;;0.68;0.40;;;;;;;;;;5043400;28;20045;-65
2023/04/26 06:32:08;;;;;;;0.80;0.70;;;;;;;;;;5027066;28;20057;-65
2023/04/26 06:34:36;;;;;;;1.50;0.50;;;;;;;;;;5026035;28;20040;-65
2023/04/26 06:37:02;;;;;;;1.90;0.40;;;;;;;;;;5043828;28;20506;-65
2023/04/26 06:39:28;;;;;;;0.70;0.45;;;;;;;;;;5044449;28;20045;-65
2023/04/26 06:41:54;;;;;;;1.10;0.90;;;;;;;;;;5044683;28;20072;-65
2023/04/26 06:44:20;;;;;;;0.70;0.70;;;;;;;;;;5025876;28;20460;-65
2023/04/26 06:46:46;;;;;;;1.02;0.40;;;;;;;;;;5045158;28;20060;-65
2023/04/26 06:49:12;;;;;;;0.93;0.55;;;;;;;;;;5044462;28;20041;-65
2023/04/26 06:51:38;;;;;;;0.60;0.52;;;;;;;;;;5026231;28;20053;-65
2023/04/26 06:54:04;;;;;;;0.70;0.70;;;;;;;;;;5043497;28;20033;-65
2023/04/26 06:56:31;;;;;;;1.30;0.70;;;;;;;;;;5043114;28;20538;-65
2023/04/26 06:59:04;;;;;;;0.50;0.50;;;;;;;;;;5025969;28;20059;-65
2023/04/26 07:01:32;;;;;;;0.90;0.80;;;;;;;;;;5023683;28;20051;-65
2023/04/26 07:04:12;;;;;;;1.58;0.73;;;;;;;;;;5042055;28;20080;-65
2023/04/26 07:06:38;;;;;;;3.65;1.17;;;;;;;;;;5044307;28;20060;-65
2023/04/26 07:09:04;;;;;;;3.25;1.08;;;;;;;;;;5043450;28;20398;-65
2023/04/26 07:11:30;;;;;;;3.45;0.80;;;;;;;;;;5042332;28;20052;-65
2023/04/26 07:13:57;;;;;;;1.40;1.15;;;;;;;;;;5042812;28;20891;-65
2023/04/26 07:16:23;;;;;;;2.28;0.90;;;;;;;;;;5021169;28;20049;-65
2023/04/26 07:18:49;;;;;;;3.88;0.80;;;;;;;;;;5042894;28;20033;-65
2023/04/26 07:21:15;;;;;;;3.55;1.20;;;;;;;;;;5027190;28;20048;-65
2023/04/26 07:23:41;;;;;;;1.95;1.17;;;;;;;;;;5044317;28;20053;-65
2023/04/26 07:26:07;;;;;;;1.35;1.08;;;;;;;;;;5043215;28;20056;-65
2023/04/26 07:28:33;;;;;;;3.92;1.05;;;;;;;;;;5041480;28;20044;-65
2023/04/26 07:31:00;;;;;;;2.75;0.95;;;;;;;;;;5024638;28;20067;-65
2023/04/26 07:33:26;;;;;;;0.95;0.85;;;;;;;;;;5020787;28;20049;-65
2023/04/26 07:36:00;;;;;;;1.85;1.20;;;;;;;;;;5038611;28;20048;-65
2023/04/26 07:38:26;;;;;;;4.70;1.48;;;;;;;;;;5042578;28;20045;-65
2023/04/26 07:40:52;;;;;;;1.67;0.80;;;;;;;;;;5043660;28;20071;-65
2023/04/26 07:43:19;;;;;;;1.25;0.95;;;;;;;;;;5044213;28;20068;-65
2023/04/26 07:45:45;;;;;;;2.85;1.00;;;;;;;;;;5023408;28;20040;-65
2023/04/26 07:48:11;;;;;;;2.55;1.20;;;;;;;;;;5044415;28;20045;-65
2023/04/26 07:50:37;;;;;;;2.70;1.50;;;;;;;;;;5025418;28;20716;-65
2023/04/26 07:53:03;;;;;;;3.38;1.40;;;;;;;;;;5042839;28;20125;-64
2023/04/26 07:55:29;;;;;;;2.55;1.27;;;;;;;;;;5025225;28;20132;-64
2023/04/26 07:57:55;;;;;;;2.40;1.48;;;;;;;;;;5043484;28;20152;-64
2023/04/26 08:00:21;;;;;;;3.20;1.15;;;;;;;;;;5024280;28;20131;-64
2023/04/26 08:02:48;;;;;;;1.15;0.90;;;;;;;;;;5025370;28;20762;-62
2023/04/26 08:05:14;;;;;;;1.85;0.90;;;;;;;;;;5044201;28;20073;-61
2023/04/26 08:07:41;;;;;;;2.15;1.17;;;;;;;;;;5024430;28;20057;-65
2023/04/26 08:10:07;;;;;;;2.25;0.98;;;;;;;;;;5043025;28;20445;-68
2023/04/26 08:12:33;;;;;;;1.50;0.82;;;;;;;;;;5044573;28;20124;-66
2023/04/26 08:15:00;;;;;;;1.60;0.65;;;;;;;;;;5028804;28;20045;-69
2023/04/26 08:17:26;;;;;;;4.32;1.27;;;;;;;;;;5048683;28;20560;-68
2023/04/26 08:19:52;;;;;;;3.53;1.10;;;;;;;;;;5048333;28;20497;-70
2023/04/26 08:22:18;;;;;;;1.55;1.00;;;;;;;;;;5030263;28;20040;-69
2023/04/26 08:24:51;;;;;;;4.32;1.60;;;;;;;;;;5046473;28;20045;-67
2023/04/26 08:27:18;;;;;;;;;;;;;;;;;;5048277;28;20103;-67
2023/04/26 08:29:44;;;;;;;2.40;1.00;;;;;;;;;;5028922;28;19924;-67
2023/04/26 08:32:10;;;;;;;1.63;1.15;;;;;;;;;;5029189;28;20412;-66
2023/04/26 08:34:36;;;;;;;3.80;1.80;;;;;;;;;;5047524;28;20053;-66
2023/04/26 08:37:02;;;;;;;0.88;0.57;;;;;;;;;;5047516;28;20090;-67
2023/04/26 08:39:28;;;;;;;2.22;0.93;;;;;;;;;;5031825;28;20052;-69
2023/04/26 08:41:54;;;;;;;2.45;1.40;;;;;;;;;;5028163;28;20048;-69
2023/04/26 08:44:23;;;;;;;2.63;1.52;;;;;;;;;;5028767;28;20069;-68
2023/04/26 08:46:57;;;;;;;2.15;1.35;;;;;;;;;;5041703;28;20124;-68
2023/04/26 08:49:26;;;;;;;3.28;1.13;;;;;;;;;;5023116;28;20080;-64
2023/04/26 08:51:53;;;;;;;3.63;1.52;;;;;;;;;;5043675;28;20060;-68
2023/04/26 08:54:19;;;;;;;3.90;1.98;;;;;;;;;;5047341;28;20034;-67
2023/04/26 08:56:46;;;;;;;5.10;1.33;;;;;;;;;;5036016;28;20135;-67
2023/04/26 08:59:12;;;;;;;2.92;1.60;;;;;;;;;;5041593;28;20045;-67
2023/04/26 09:01:40;;;;;;;3.30;1.33;;;;;;;;;;5010388;28;20464;-67
2023/04/26 09:04:06;;;;;;;3.92;1.45;;;;;;;;;;5031850;28;20053;-68
2023/04/26 09:06:32;;;;;;;1.15;1.00;;;;;;;;;;5051034;28;20521;-67
2023/04/26 09:09:01;;;;;;;1.23;0.77;;;;;;;;;;5055831;28;20573;-67
2023/04/26 09:11:27;;;;;;;1.58;1.10;;;;;;;;;;5056120;28;20036;-67
2023/04/26 09:13:53;;;;;;;1.20;1.08;;;;;;;;;;5034930;28;20122;-67
2023/04/26 09:16:19;;;;;;;1.40;0.88;;;;;;;;;;5055092;28;20040;-67
2023/04/26 09:18:53;;;;;;;2.03;0.90;;;;;;;;;;5049405;28;20040;-67
2023/04/26 09:21:19;;;;;;;1.65;0.95;;;;;;;;;;5031781;28;20094;-70
2023/04/26 09:23:58;;;;;;;0.65;0.52;;;;;;;;;;5042702;28;20570;-67
2023/04/26 09:26:25;;;;;;;0.63;0.60;;;;;;;;;;5050225;28;20044;-70
2023/04/26 09:29:10;;;;;;;0.90;0.70;;;;;;;;;;5039555;28;20059;-70
2023/04/26 09:31:44;;;;;;;0.93;0.50;;;;;;;;;;5033196;28;20395;-69
2023/04/26 09:34:11;;;;;;;1.05;0.65;;;;;;;;;;5057232;28;20044;-68
2023/04/26 09:36:46;;;;;;;0.88;0.60;;;;;;;;;;5052241;28;20044;-70
2023/04/26 09:39:12;;;;;;;2.95;0.98;;;;;;;;;;5038976;28;20032;-70
2023/04/26 09:41:42;;;;;;;0.93;0.75;;;;;;;;;;5054808;28;20044;-68
2023/04/26 09:44:20;;;;;;;1.27;0.80;;;;;;;;;;5056703;28;20058;-69
2023/04/26 09:46:57;;;;;;;3.58;0.85;;;;;;;;;;5044488;28;20033;-68
2023/04/26 09:49:23;;;;;;;1.10;0.80;;;;;;;;;;5054148;28;20482;-67
2023/04/26 09:52:02;;;;;;;0.73;0.50;;;;;;;;;;5038931;28;20250;-67
2023/04/26 09:54:39;;;;;;;1.33;0.57;;;;;;;;;;5053371;28;20119;-64
2023/04/26 09:57:05;;;;;;;1.42;0.60;;;;;;;;;;5037500;28;20063;-68
2023/04/26 09:59:41;;;;;;;1.02;0.50;;;;;;;;;;5029499;28;20052;-69
2023/04/26 10:02:10;;;;;;;1.92;0.60;;;;;;;;;;5046140;28;20048;-69
2023/04/26 10:04:36;;;;;;;1.60;0.50;;;;;;;;;;5045596;28;20049;-68
2023/04/26 10:07:03;;;;;;;4.35;0.50;;;;;;;;;;5043949;28;20755;-69
2023/04/26 10:09:30;;;;;;;2.35;1.02;;;;;;;;;;5027029;28;20068;-69
2023/04/26 10:11:56;;;;;;;4.05;1.48;;;;;;;;;;5026892;28;20056;-69
2023/04/26 10:14:23;;;;;;;3.75;0.95;;;;;;;;;;5044830;28;20553;-68
2023/04/26 10:16:49;;;;;;;2.13;0.93;;;;;;;;;;5028536;28;20472;-68
2023/04/26 10:19:15;;;;;;;1.80;0.95;;;;;;;;;;5046628;28;20061;-68
2023/04/26 10:21:42;;;;;;;2.88;0.85;;;;;;;;;;5026354;28;20045;-68
2023/04/26 10:24:09;;;;;;;2.17;0.70;;;;;;;;;;5044409;28;20575;-68
2023/04/26 10:26:50;;;;;;;1.83;0.85;;;;;;;;;;5044768;28;20128;-68
2023/04/26 10:29:16;;;;;;;1.33;0.70;;;;;;;;;;5033318;28;20087;-68
2023/04/26 10:32:00;;;;;;;1.15;0.63;;;;;;;;;;5040543;28;20052;-67
2023/04/26 10:34:26;;;;;;;6.43;1.13;;;;;;;;;;5007238;28;21547;-69
2023/04/26 10:37:12;;;;;;;1.35;0.80;;;;;;;;;;5033560;28;20056;-68
2023/04/26 10:39:45;;;;;;;1.08;0.50;;;;;;;;;;5032865;28;20075;-68
2023/04/26 10:42:23;;;;;;;1.27;0.73;;;;;;;;;;5034852;28;20077;-68
2023/04/26 10:45:18;;;;;;;1.02;0.60;;;;;;;;;;5020976;28;20057;-68
2023/04/26 10:47:44;;;;;;;2.20;1.23;;;;;;;;;;5053597;28;20049;-68
2023/04/26 10:50:10;;;;;;;1.05;0.60;;;;;;;;;;5032109;28;20057;-68
2023/04/26 10:52:38;;;;;;;3.50;0.75;;;;;;;;;;5051702;28;20040;-68
2023/04/26 10:55:06;;;;;;;3.20;1.42;;;;;;;;;;5036607;28;20051;-68
2023/04/26 10:57:52;;;;;;;2.40;0.82;;;;;;;;;;5022201;28;20083;-68
2023/04/26 11:00:19;;;;;;;2.13;0.90;;;;;;;;;;5051190;28;20448;-68
2023/04/26 11:02:52;;;;;;;1.52;0.80;;;;;;;;;;5018989;28;20048;-69
2023/04/26 11:05:38;;;;;;;0.88;0.47;;;;;;;;;;5040286;28;20067;-69
2023/04/26 11:08:13;;;;;;;2.72;0.80;;;;;;;;;;5010962;28;20488;-69
2023/04/26 11:10:39;;;;;;;0.98;0.70;;;;;;;;;;5034567;28;20166;-69
2023/04/26 11:13:05;;;;;;;0.75;0.60;;;;;;;;;;5018216;28;20487;-69
2023/04/26 11:15:32;;;;;;;1.75;0.70;;;;;;;;;;5035887;28;20045;-69
2023/04/26 11:17:58;;;;;;;2.92;0.80;;;;;;;;;;5013924;28;20037;-70
2023/04/26 11:20:31;;;;;;;0.43;0.43;;;;;;;;;;5021354;28;20049;-69
2023/04/26 11:22:58;;;;;;;2.45;0.80;;;;;;;;;;5032879;28;20071;-73
2023/04/26 11:25:25;;;;;;;3.03;0.90;;;;;;;;;;5021913;28;20044;-72
2023/04/26 11:27:56;;;;;;;1.42;0.70;;;;;;;;;;5052520;28;20094;-72
2023/04/26 11:30:22;;;;;;;2.42;0.80;;;;;;;;;;5019951;28;20048;-71
2023/04/26 11:32:48;;;;;;;1.75;0.73;;;;;;;;;;5031693;28;20045;-69
2023/04/26 11:35:14;;;;;;;1.38;0.60;;;;;;;;;;5009898;28;20048;-72
2023/04/26 11:37:40;;;;;;;3.63;1.00;;;;;;;;;;5012130;28;20037;-72
2023/04/26 11:40:10;;;;;;;0.80;0.55;;;;;;;;;;5031442;28;20049;-72
2023/04/26 11:42:36;;;;;;;0.80;0.68;;;;;;;;;;5012021;28;20045;-72
2023/04/26 11:45:05;;;;;;;1.10;0.60;;;;;;;;;;5027034;28;20132;-72
2023/04/26 11:47:32;;;;;;;1.52;0.65;;;;;;;;;;5029957;28;20041;-72
2023/04/26 11:49:58;;;;;;;2.25;0.80;;;;;;;;;;5017548;28;20049;-72
2023/04/26 11:52:24;;;;;;;2.88;0.82;;;;;;;;;;5058150;28;20044;-71
2023/04/26 11:55:01;;;;;;;1.77;0.60;;;;;;;;;;5040047;28;20049;-71
2023/04/26 11:57:32;;;;;;;0.50;0.50;;;;;;;;;;5048993;28;20037;-71
2023/04/26 12:00:11;;;;;;;0.83;0.53;;;;;;;;;;5038106;28;20057;-72
2023/04/26 12:02:37;;;;;;;1.60;0.57;;;;;;;;;;5054426;28;20495;-71
2023/04/26 12:05:03;;;;;;;1.45;0.57;;;;;;;;;;5039302;28;20098;-71
2023/04/26 12:07:35;;;;;;;2.50;0.77;;;;;;;;;;5054933;28;20119;-71
2023/04/26 12:10:18;;;;;;;2.00;0.80;;;;;;;;;;5040004;28;20076;-71
2023/04/26 12:12:44;;;;;;;1.05;0.70;;;;;;;;;;5035816;28;20088;-71
2023/04/26 12:15:11;;;;;;;3.17;0.93;;;;;;;;;;5028568;28;20118;-71
2023/04/26 12:17:37;;;;;;;2.10;0.90;;;;;;;;;;5034890;28;20418;-71
2023/04/26 12:20:10;;;;;;;3.60;1.38;;;;;;;;;;5047136;28;20049;-71
2023/04/26 12:22:36;;;;;;;1.23;0.77;;;;;;;;;;5045551;28;20050;-71
2023/04/26 12:25:06;;;;;;;4.63;1.30;;;;;;;;;;5052795;28;20049;-71
2023/04/26 12:27:33;;;;;;;1.60;0.50;;;;;;;;;;5034511;28;20045;-71
2023/04/26 12:29:59;;;;;;;1.38;0.80;;;;;;;;;;5027194;28;20124;-69
2023/04/26 12:32:25;;;;;;;1.95;0.60;;;;;;;;;;5024204;28;20037;-69
2023/04/26 12:34:51;;;;;;;2.80;0.75;;;;;;;;;;5042375;28;20057;-71
2023/04/26 12:37:17;;;;;;;2.28;0.65;;;;;;;;;;5026951;28;20051;-71
2023/04/26 12:39:45;;;;;;;0.52;0.30;;;;;;;;;;5022755;28;20128;-71
2023/04/26 12:42:11;;;;;;;2.85;0.75;;;;;;;;;;5039936;28;20057;-71
2023/04/26 12:44:37;;;;;;;3.75;1.05;;;;;;;;;;5039418;28;20052;-71
2023/04/26 12:47:03;;;;;;;2.55;0.75;;;;;;;;;;5019828;28;20484;-71
2023/04/26 12:49:29;;;;;;;2.03;0.73;;;;;;;;;;5021066;28;20045;-71
2023/04/26 12:51:55;;;;;;;3.45;0.90;;;;;;;;;;5025127;28;20480;-71
2023/04/26 12:54:21;;;;;;;1.10;0.60;;;;;;;;;;5020392;28;20046;-71
2023/04/26 12:56:48;;;;;;;0.52;0.45;;;;;;;;;;5038777;28;20043;-71
2023/04/26 12:59:14;;;;;;;1.33;0.80;;;;;;;;;;5035423;28;20048;-70
2023/04/26 13:01:41;;;;;;;1.73;0.80;;;;;;;;;;5034840;28;20499;-71
2023/04/26 13:04:07;;;;;;;1.90;1.08;;;;;;;;;;5025890;28;20129;-71
2023/04/26 13:06:33;;;;;;;1.63;0.63;;;;;;;;;;5042795;28;20044;-71
2023/04/26 13:09:00;;;;;;;7.72;0.98;;;;;;;;;;5030642;28;20041;-71
2023/04/26 13:11:26;;;;;;;2.70;0.70;;;;;;;;;;5040962;28;20080;-71
2023/04/26 13:13:52;;;;;;;5.35;1.02;;;;;;;;;;5036479;28;20052;-71
2023/04/26 13:16:18;;;;;;;1.25;0.75;;;;;;;;;;5039356;28;20482;-71
2023/04/26 13:18:45;;;;;;;0.82;0.40;;;;;;;;;;5033076;28;20037;-71
2023/04/26 13:21:12;;;;;;;2.38;0.65;;;;;;;;;;5027763;28;20073;-71
2023/04/26 13:23:38;;;;;;;0.98;0.52;;;;;;;;;;5044506;28;20080;-71
2023/04/26 13:26:04;;;;;;;2.08;0.50;;;;;;;;;;5042460;28;20045;-70
2023/04/26 13:28:30;;;;;;;2.05;0.85;;;;;;;;;;5037323;28;20045;-70
2023/04/26 13:30:56;;;;;;;0.65;0.55;;;;;;;;;;5028631;28;20055;-71
2023/04/26 13:33:22;;;;;;;3.25;1.00;;;;;;;;;;5008435;28;20499;-71
2023/04/26 13:35:48;;;;;;;1.70;0.70;;;;;;;;;;5008808;28;20107;-71
2023/04/26 13:38:14;;;;;;;1.17;0.57;;;;;;;;;;5026360;28;20041;-71
2023/04/26 13:40:40;;;;;;;2.08;0.90;;;;;;;;;;5026935;28;20647;-71
2023/04/26 13:43:06;;;;;;;2.17;0.60;;;;;;;;;;5026146;28;20487;-71
2023/04/26 13:45:32;;;;;;;1.52;0.80;;;;;;;;;;5025395;28;20504;-71
2023/04/26 13:47:58;;;;;;;0.93;0.70;;;;;;;;;;5026458;28;20092;-71
2023/04/26 13:50:24;;;;;;;1.08;0.60;;;;;;;;;;5009478;28;20053;-71
2023/04/26 13:52:51;;;;;;;6.75;1.00;;;;;;;;;;5026040;28;20045;-71
2023/04/26 13:55:18;;;;;;;2.40;0.85;;;;;;;;;;5045511;28;20704;-71
2023/04/26 13:57:44;;;;;;;2.03;0.90;;;;;;;;;;5048910;28;20045;-71
2023/04/26 14:00:11;;;;;;;1.33;0.80;;;;;;;;;;5044005;28;20099;-70
2023/04/26 14:02:37;;;;;;;0.82;0.70;;;;;;;;;;5028475;28;20053;-71
2023/04/26 14:05:03;;;;;;;1.60;0.95;;;;;;;;;;5046348;28;20136;-70
2023/04/26 14:07:29;;;;;;;2.50;0.65;;;;;;;;;;5045722;28;20053;-70
2023/04/26 14:09:55;;;;;;;0.98;0.80;;;;;;;;;;5038101;28;20044;-71
2023/04/26 14:12:21;;;;;;;4.53;0.80;;;;;;;;;;5034913;28;20049;-70
2023/04/26 14:14:47;;;;;;;1.80;0.70;;;;;;;;;;5019709;28;20049;-70
2023/04/26 14:17:14;;;;;;;1.13;0.70;;;;;;;;;;5028666;28;20127;-70
2023/04/26 14:19:41;;;;;;;1.92;0.70;;;;;;;;;;5040514;28;20048;-70
2023/04/26 14:22:11;;;;;;;2.40;0.98;;;;;;;;;;5034812;28;20311;-70
2023/04/26 14:24:37;;;;;;;1.38;0.63;;;;;;;;;;5008922;28;20041;-70
2023/04/26 14:27:03;;;;;;;2.53;1.23;;;;;;;;;;5008064;28;20064;-70
2023/04/26 14:29:29;;;;;;;0.50;0.50;;;;;;;;;;5032183;28;20041;-70
2023/04/26 14:31:55;;;;;;;1.38;0.75;;;;;;;;;;5026689;28;20582;-71
2023/04/26 14:34:22;;;;;;;1.15;0.93;;;;;;;;;;5014785;28;20053;-70
2023/04/26 14:36:48;;;;;;;1.15;0.52;;;;;;;;;;5036641;28;20049;-71
2023/04/26 14:39:15;;;;;;;0.70;0.60;;;;;;;;;;5015829;28;20126;-70
2023/04/26 14:41:42;;;;;;;0.90;0.60;;;;;;;;;;5024876;28;20106;-70
2023/04/26 14:44:08;;;;;;;1.30;0.63;;;;;;;;;;5025613;28;20067;-70